createdAt,value
2022-08-22T00:00:21.457Z,56.34
2022-08-22T00:02:57.618Z,53.84
2022-08-22T00:03:07.364Z,51.15
2022-08-22T00:06:31.157Z,59.25
2022-08-22T00:09:41.538Z,59.13
2022-08-22T00:12:40.412Z,59.45
2022-08-22T00:15:18.371Z,58.84
2022-08-22T00:18:22.843Z,57.75
2022-08-22T00:21:25.990Z,58.73
2022-08-22T00:24:17.018Z,58.05
2022-08-22T00:26:58.026Z,58.83
2022-08-22T00:29:38.606Z,59.36
2022-08-22T00:32:26.242Z,59.69
2022-08-22T00:35:18.039Z,59.84
2022-08-22T00:38:10.856Z,59.96
2022-08-22T00:41:04.292Z,60.28
2022-08-22T00:44:17.647Z,59.29
2022-08-22T00:47:19.890Z,59.06
2022-08-22T00:50:45.251Z,59.42
2022-08-22T00:53:47.476Z,59.64
2022-08-22T00:56:54.750Z,59.86
2022-08-22T00:59:43.862Z,58.82
2022-08-22T01:02:59.816Z,58.27
2022-08-22T01:05:58.454Z,57.99
2022-08-22T01:09:15.860Z,57.60
2022-08-22T01:12:32.674Z,58.97
2022-08-22T01:15:09.666Z,59.60
2022-08-22T01:18:00.521Z,59.86
2022-08-22T01:20:48.959Z,59.71
2022-08-22T01:24:24.521Z,61.61
2022-08-22T01:27:31.669Z,61.60
2022-08-22T01:31:12.754Z,62.30
2022-08-22T01:34:20.272Z,62.67
2022-08-22T01:37:43.595Z,63.30
2022-08-22T01:41:19.931Z,63.17
2022-08-22T01:44:35.222Z,62.97
2022-08-22T01:47:23.100Z,62.92
2022-08-22T01:50:11.383Z,63.24
2022-08-22T01:53:08.875Z,62.53
2022-08-22T01:55:48.584Z,63.26
2022-08-22T01:58:24.816Z,64.14
2022-08-22T02:01:52.499Z,63.59
2022-08-22T02:04:58.979Z,63.71
2022-08-22T02:07:50.095Z,62.07
2022-08-22T02:11:06.940Z,63.24
2022-08-22T02:14:27.647Z,65.39
2022-08-22T02:17:19.325Z,64.94
2022-08-22T02:20:13.285Z,64.18
2022-08-22T02:23:29.551Z,62.91
2022-08-22T02:26:41.362Z,63.59
2022-08-22T02:29:19.321Z,63.41
2022-08-22T02:32:05.768Z,64.93
2022-08-22T02:35:09.276Z,65.59
2022-08-22T02:38:08.193Z,64.63
2022-08-22T02:41:11.716Z,65.08
2022-08-22T02:43:54.804Z,64.59
2022-08-22T02:46:51.960Z,64.47
2022-08-22T02:49:36.144Z,64.99
2022-08-22T02:52:45.773Z,63.90
2022-08-22T02:55:53.045Z,65.28
2022-08-22T02:59:42.671Z,64.94
2022-08-22T03:02:46.553Z,64.70
2022-08-22T03:05:33.286Z,66.23
2022-08-22T03:08:26.138Z,65.04
2022-08-22T03:11:44.018Z,65.18
2022-08-22T03:14:39.704Z,65.48
2022-08-22T03:17:47.454Z,65.65
2022-08-22T03:21:30.272Z,64.88
2022-08-22T03:25:12.902Z,65.22
2022-08-22T03:28:59.912Z,64.00
2022-08-22T03:32:42.286Z,65.40
2022-08-22T03:35:42.526Z,65.54
2022-08-22T03:39:25.053Z,65.85
2022-08-22T03:43:08.377Z,65.67
2022-08-22T03:46:50.690Z,65.12
2022-08-22T03:50:15.225Z,65.49
2022-08-22T03:53:58.301Z,67.03
2022-08-22T03:56:54.108Z,68.07
2022-08-22T04:00:39.994Z,68.24
2022-08-22T04:04:22.645Z,67.71
2022-08-22T04:08:00.086Z,66.56
2022-08-22T04:11:44.404Z,66.30
2022-08-22T04:15:08.940Z,66.90
2022-08-22T04:18:44.952Z,65.08
2022-08-22T04:22:16.166Z,64.79
2022-08-22T04:25:20.172Z,67.19
2022-08-22T04:28:19.634Z,66.78
2022-08-22T04:31:05.951Z,67.80
2022-08-22T04:33:57.849Z,67.96
2022-08-22T04:36:50.653Z,67.07
2022-08-22T04:39:40.268Z,67.76
2022-08-22T04:42:33.547Z,67.81
2022-08-22T04:45:10.308Z,67.67
2022-08-22T04:48:08.328Z,67.19
2022-08-22T04:50:55.121Z,67.63
2022-08-22T04:54:11.744Z,67.80
2022-08-22T04:57:14.554Z,67.28
2022-08-22T04:59:44.101Z,67.94
2022-08-22T05:02:24.017Z,67.03
2022-08-22T05:05:04.242Z,66.41
2022-08-22T05:07:41.116Z,65.07
2022-08-22T05:10:28.584Z,64.59
2022-08-22T05:13:04.235Z,59.21
2022-08-22T05:15:38.881Z,55.35
2022-08-22T05:18:21.105Z,51.13
2022-08-22T05:20:51.393Z,50.75
2022-08-22T05:23:33.747Z,49.81
2022-08-22T05:26:06.011Z,47.21
2022-08-22T05:28:53.302Z,44.05
2022-08-22T05:31:35.579Z,44.40
2022-08-22T05:34:13.565Z,44.28
2022-08-22T05:37:14.157Z,42.80
2022-08-22T05:39:49.692Z,41.80
2022-08-22T05:42:33.170Z,39.94
2022-08-22T05:45:06.763Z,37.89
2022-08-22T05:48:44.719Z,36.43
2022-08-22T05:52:27.539Z,35.12
2022-08-22T05:56:11.092Z,31.65
2022-08-22T05:59:04.130Z,33.14
2022-08-22T06:02:51.730Z,30.51
2022-08-22T06:06:34.261Z,30.04
2022-08-22T06:10:16.885Z,29.43
2022-08-22T06:13:03.487Z,29.35
2022-08-22T06:16:09.350Z,27.86
2022-08-22T06:19:52.223Z,25.24
2022-08-22T06:23:34.739Z,24.57
2022-08-22T06:27:17.071Z,24.17
2022-08-22T06:29:56.342Z,22.54
2022-08-22T06:32:44.546Z,22.42
2022-08-22T06:36:34.392Z,21.67
2022-08-22T06:39:33.643Z,20.60
2022-08-22T06:42:22.969Z,20.02
2022-08-22T06:46:05.694Z,19.62
2022-08-22T06:48:35.863Z,21.01
2022-08-22T06:51:08.738Z,21.05
2022-08-22T06:53:48.152Z,20.59
2022-08-22T06:56:34.020Z,20.87
2022-08-22T06:59:16.269Z,20.81
2022-08-22T07:02:07.979Z,21.71
2022-08-22T07:04:37.041Z,23.37
2022-08-22T07:07:05.523Z,21.38
2022-08-22T07:09:38.571Z,20.91
2022-08-22T07:12:20.289Z,19.84
2022-08-22T07:14:53.902Z,20.07
2022-08-22T07:17:31.206Z,19.60
2022-08-22T07:20:35.107Z,18.42
2022-08-22T07:23:12.516Z,17.87
2022-08-22T07:26:38.796Z,17.67
2022-08-22T07:29:32.635Z,16.44
2022-08-22T07:32:57.779Z,16.03
2022-08-22T07:37:01.011Z,14.31
2022-08-22T07:40:44.021Z,14.65
2022-08-22T07:44:27.392Z,14.54
2022-08-22T07:48:10.252Z,13.62
2022-08-22T07:51:13.763Z,13.31
2022-08-22T07:54:57.852Z,13.04
2022-08-22T07:58:40.544Z,13.38
2022-08-22T08:02:23.081Z,12.93
2022-08-22T08:06:05.799Z,14.25
2022-08-22T08:09:48.629Z,12.71
2022-08-22T08:13:31.897Z,12.04
2022-08-22T08:17:14.991Z,12.08
2022-08-22T08:20:57.331Z,11.45
2022-08-22T08:24:42.433Z,11.25
2022-08-22T08:28:35.950Z,11.45
2022-08-22T08:32:18.472Z,10.84
2022-08-22T08:35:25.414Z,10.07
2022-08-22T08:39:12.444Z,9.29
2022-08-22T08:43:14.223Z,9.27
2022-08-22T08:46:17.873Z,10.21
2022-08-22T08:49:17.960Z,9.91
2022-08-22T08:53:00.559Z,10.83
2022-08-22T08:56:06.509Z,11.24
2022-08-22T08:59:45.765Z,10.15
2022-08-22T09:02:33.046Z,9.76
2022-08-22T09:05:56.779Z,9.46
2022-08-22T09:08:55.948Z,9.53
2022-08-22T09:12:11.295Z,10.00
2022-08-22T09:15:00.329Z,9.77
2022-08-22T09:18:00.280Z,9.61
2022-08-22T09:21:40.746Z,8.84
2022-08-22T09:25:05.956Z,9.02
2022-08-22T09:27:59.766Z,8.50
2022-08-22T09:31:48.217Z,8.86
2022-08-22T09:39:39.920Z,13.36
2022-08-22T09:43:02.509Z,12.46
2022-08-22T09:45:50.851Z,11.37
2022-08-22T09:49:02.082Z,12.16
2022-08-22T09:52:47.992Z,11.26
2022-08-22T09:56:29.950Z,10.28
2022-08-22T10:00:13.511Z,9.90
2022-08-22T10:03:56.118Z,8.65
2022-08-22T10:07:38.963Z,8.21
2022-08-22T10:11:22.893Z,10.28
2022-08-22T10:15:06.987Z,9.62
2022-08-22T10:18:52.727Z,10.28
2022-08-22T10:22:14.445Z,9.76
2022-08-22T10:25:19.138Z,10.54
2022-08-22T10:28:13.012Z,9.81
2022-08-22T10:31:58.554Z,9.01
2022-08-22T10:34:39.700Z,8.60
2022-08-22T10:37:37.629Z,8.78
2022-08-22T10:40:39.397Z,8.71
2022-08-22T10:43:28.872Z,8.35
2022-08-22T10:46:12.529Z,7.92
2022-08-22T10:49:05.713Z,7.95
2022-08-22T10:51:52.194Z,7.62
2022-08-22T10:54:48.690Z,7.41
2022-08-22T10:57:42.951Z,7.71
2022-08-22T11:00:46.128Z,8.04
2022-08-22T11:04:18.767Z,9.49
2022-08-22T11:08:14.244Z,9.27
2022-08-22T11:11:57.211Z,8.21
2022-08-22T11:15:40.657Z,7.74
2022-08-22T11:19:23.523Z,6.70
2022-08-22T11:23:06.396Z,7.42
2022-08-22T11:26:50.576Z,8.03
2022-08-22T11:30:36.369Z,8.21
2022-08-22T11:34:26.521Z,8.09
2022-08-22T11:38:10.924Z,8.77
2022-08-22T11:41:54.025Z,8.01
2022-08-22T11:45:37.301Z,8.46
2022-08-22T11:49:26.729Z,8.85
2022-08-22T11:53:09.595Z,8.58
2022-08-22T11:56:52.307Z,8.53
2022-08-22T12:00:35.143Z,8.40
2022-08-22T12:04:20.563Z,8.64
2022-08-22T12:06:59.219Z,7.93
2022-08-22T12:09:56.594Z,7.94
2022-08-22T12:13:04.362Z,7.80
2022-08-22T12:16:29.977Z,8.99
2022-08-22T12:19:29.667Z,9.05
2022-08-22T12:22:54.146Z,8.77
2022-08-22T12:26:16.911Z,8.76
2022-08-22T12:29:17.945Z,8.56
2022-08-22T12:32:34.124Z,9.32
2022-08-22T12:35:27.102Z,9.28
2022-08-22T12:38:28.692Z,9.14
2022-08-22T12:41:28.312Z,9.96
2022-08-22T12:44:45.317Z,10.45
2022-08-22T12:48:08.548Z,10.44
2022-08-22T12:51:27.074Z,11.10
2022-08-22T12:54:21.609Z,10.12
2022-08-22T12:57:23.678Z,10.85
2022-08-22T13:00:26.931Z,11.31
2022-08-22T13:03:09.999Z,11.33
2022-08-22T13:05:40.799Z,10.70
2022-08-22T13:08:29.612Z,10.53
2022-08-22T13:11:08.136Z,12.40
2022-08-22T13:13:57.141Z,12.17
2022-08-22T13:16:38.821Z,11.93
2022-08-22T13:19:18.846Z,12.97
2022-08-22T13:22:16.492Z,12.46
2022-08-22T13:24:58.833Z,13.22
2022-08-22T13:27:50.999Z,12.25
2022-08-22T13:30:39.293Z,12.85
2022-08-22T13:33:14.591Z,12.23
2022-08-22T13:35:52.598Z,13.19
2022-08-22T13:39:20.464Z,11.92
2022-08-22T13:41:59.275Z,13.04
2022-08-22T13:44:37.961Z,13.19
2022-08-22T13:47:22.194Z,13.35
2022-08-22T13:50:11.764Z,13.56
2022-08-22T13:52:58.456Z,13.04
2022-08-22T13:55:49.001Z,12.83
2022-08-22T13:59:07.171Z,14.24
2022-08-22T14:02:00.647Z,15.27
2022-08-22T14:04:40.504Z,15.49
2022-08-22T14:07:10.572Z,14.73
2022-08-22T14:09:56.743Z,15.45
2022-08-22T14:12:33.352Z,16.44
2022-08-22T14:15:32.197Z,17.21
2022-08-22T14:18:37.900Z,18.01
2022-08-22T14:21:40.119Z,18.73
2022-08-22T14:24:20.344Z,19.28
2022-08-22T14:27:07.699Z,17.66
2022-08-22T14:30:01.250Z,18.50
2022-08-22T14:32:50.514Z,18.26
2022-08-22T14:35:34.974Z,18.35
2022-08-22T14:38:50.636Z,18.46
2022-08-22T14:41:19.809Z,18.19
2022-08-22T14:44:06.033Z,18.95
2022-08-22T14:47:01.068Z,19.89
2022-08-22T14:49:57.640Z,20.37
2022-08-22T14:52:33.476Z,20.28
2022-08-22T14:55:30.516Z,20.51
2022-08-22T14:59:14.923Z,21.32
2022-08-22T15:02:05.223Z,20.60
2022-08-22T15:05:48.309Z,21.34
2022-08-22T15:08:39.573Z,22.40
2022-08-22T15:11:20.241Z,22.06
2022-08-22T15:14:13.415Z,22.49
2022-08-22T15:17:56.740Z,23.16
2022-08-22T15:20:35.356Z,23.13
2022-08-22T15:24:19.691Z,23.71
2022-08-22T15:28:05.212Z,24.25
2022-08-22T15:31:47.798Z,25.22
2022-08-22T15:35:31.471Z,24.55
2022-08-22T15:38:27.891Z,24.63
2022-08-22T15:42:10.414Z,25.15
2022-08-22T15:44:44.206Z,24.65
2022-08-22T15:47:39.737Z,24.42
2022-08-22T15:50:46.244Z,24.55
2022-08-22T15:54:28.952Z,23.79
2022-08-22T15:57:18.550Z,23.97
2022-08-22T16:00:29.843Z,22.86
2022-08-22T16:03:08.057Z,22.74
2022-08-22T16:05:55.159Z,23.08
2022-08-22T16:08:49.663Z,22.60
2022-08-22T16:11:38.619Z,23.09
2022-08-22T16:14:50.765Z,22.64
2022-08-22T16:17:30.761Z,22.60
2022-08-22T16:20:19.421Z,21.97
2022-08-22T16:22:58.811Z,22.00
2022-08-22T16:25:44.749Z,22.49
2022-08-22T16:28:54.334Z,22.47
2022-08-22T16:31:22.756Z,22.57
2022-08-22T16:33:50.457Z,23.20
2022-08-22T16:36:41.267Z,23.46
2022-08-22T16:39:21.035Z,23.07
2022-08-22T16:42:16.027Z,23.19
2022-08-22T16:44:56.706Z,23.54
2022-08-22T16:47:33.210Z,23.34
2022-08-22T16:50:15.662Z,23.17
2022-08-22T16:53:03.128Z,22.82
2022-08-22T16:55:30.349Z,23.17
2022-08-22T16:58:57.852Z,23.04
2022-08-22T17:02:13.953Z,22.82
2022-08-22T17:05:31.704Z,22.23
2022-08-22T17:08:31.938Z,22.50
2022-08-22T17:11:39.111Z,22.55
2022-08-22T17:14:21.584Z,23.19
2022-08-22T17:17:01.063Z,23.22
2022-08-22T17:19:48.083Z,23.28
2022-08-22T17:23:31.600Z,23.50
2022-08-22T17:26:29.027Z,23.82
2022-08-22T17:30:11.758Z,23.53
2022-08-22T17:33:51.605Z,24.15
2022-08-22T17:37:35.955Z,24.75
2022-08-22T17:40:42.668Z,25.09
2022-08-22T17:43:49.294Z,25.50
2022-08-22T17:46:30.759Z,25.79
2022-08-22T17:49:20.799Z,26.00
2022-08-22T17:53:03.472Z,26.34
2022-08-22T17:56:46.371Z,26.90
2022-08-22T17:59:21.258Z,27.23
2022-08-22T18:01:59.993Z,26.73
2022-08-22T18:04:57.544Z,27.71
2022-08-22T18:07:45.809Z,27.59
2022-08-22T18:10:42.131Z,28.19
2022-08-22T18:14:25.595Z,28.28
2022-08-22T18:18:08.680Z,28.89
2022-08-22T18:21:52.147Z,29.14
2022-08-22T18:25:34.962Z,29.24
2022-08-22T18:29:17.631Z,29.92
2022-08-22T18:33:00.499Z,30.22
2022-08-22T18:36:43.814Z,30.33
2022-08-22T18:40:27.393Z,30.25
2022-08-22T18:44:11.496Z,30.24
2022-08-22T18:47:54.905Z,31.02
2022-08-22T18:51:38.813Z,31.55
2022-08-22T18:55:22.032Z,31.38
2022-08-22T18:59:05.311Z,32.47
2022-08-22T19:02:55.883Z,33.32
2022-08-22T19:06:39.257Z,34.75
2022-08-22T19:10:22.381Z,34.80
2022-08-22T19:14:05.531Z,35.13
2022-08-22T19:17:58.918Z,35.45
2022-08-22T19:22:01.518Z,35.78
2022-08-22T19:25:20.361Z,36.99
2022-08-22T19:28:06.625Z,36.45
2022-08-22T19:30:33.891Z,36.61
2022-08-22T19:33:34.536Z,37.42
2022-08-22T19:36:33.371Z,37.37
2022-08-22T19:39:10.889Z,37.50
2022-08-22T19:41:57.040Z,38.04
2022-08-22T19:44:27.316Z,38.59
2022-08-22T19:47:23.993Z,38.18
2022-08-22T19:49:54.364Z,37.49
2022-08-22T19:53:09.726Z,38.09
2022-08-22T19:55:38.382Z,38.60
2022-08-22T19:59:11.953Z,39.02
2022-08-22T20:01:45.734Z,39.43
2022-08-22T20:04:38.986Z,40.15
2022-08-22T20:07:52.436Z,40.03
2022-08-22T20:10:42.574Z,40.64
2022-08-22T20:13:29.303Z,41.20
2022-08-22T20:17:20.573Z,41.77
2022-08-22T20:21:03.492Z,42.68
2022-08-22T20:24:46.724Z,42.95
2022-08-22T20:28:29.866Z,44.12
2022-08-22T20:32:12.875Z,44.08
2022-08-22T20:35:56.069Z,43.86
2022-08-22T20:39:40.080Z,43.15
2022-08-22T20:42:15.451Z,43.79
2022-08-22T20:48:36.429Z,44.12
2022-08-22T20:51:09.351Z,44.07
2022-08-22T20:53:37.260Z,44.25
2022-08-22T20:56:08.007Z,43.81
2022-08-22T20:59:50.485Z,45.82
2022-08-22T21:03:02.525Z,45.94
2022-08-22T21:06:45.474Z,46.93
2022-08-22T21:10:47.403Z,47.28
2022-08-22T21:14:30.836Z,47.28
2022-08-22T21:16:58.829Z,48.29
2022-08-22T21:20:22.023Z,47.76
2022-08-22T21:22:51.667Z,48.32
2022-08-22T21:25:19.214Z,48.47
2022-08-22T21:27:48.758Z,48.47
2022-08-22T21:30:28.505Z,48.03
2022-08-22T21:32:56.657Z,48.93
2022-08-22T21:35:32.925Z,48.29
2022-08-22T21:38:02.252Z,48.56
2022-08-22T21:40:37.355Z,48.78
2022-08-22T21:43:14.102Z,49.32
2022-08-22T21:45:45.177Z,49.17
2022-08-22T21:48:46.479Z,47.67
2022-08-22T21:51:41.792Z,49.03
2022-08-22T21:54:41.260Z,48.26
2022-08-22T21:57:15.364Z,49.44
2022-08-22T21:59:51.828Z,49.11
2022-08-22T22:02:41.992Z,50.73
2022-08-22T22:05:18.821Z,50.28
2022-08-22T22:07:50.331Z,50.15
2022-08-22T22:10:22.628Z,50.63
2022-08-22T22:12:52.146Z,50.64
2022-08-22T22:15:25.987Z,51.28
2022-08-22T22:17:55.428Z,51.54
2022-08-22T22:20:26.180Z,51.90
2022-08-22T22:22:54.814Z,51.95
2022-08-22T22:25:40.075Z,52.08
2022-08-22T22:28:29.465Z,52.45
2022-08-22T22:30:57.190Z,52.27
2022-08-22T22:33:32.114Z,52.45
2022-08-22T22:36:15.858Z,51.94
2022-08-22T22:38:44.829Z,51.78
2022-08-22T22:41:12.914Z,52.41
2022-08-22T22:43:40.438Z,52.38
2022-08-22T22:46:08.180Z,51.99
2022-08-22T22:48:36.128Z,52.35
2022-08-22T22:51:13.051Z,51.74
2022-08-22T22:53:44.441Z,51.54
2022-08-22T22:56:21.487Z,51.19
2022-08-22T22:59:00.990Z,51.29
2022-08-22T23:02:03.104Z,50.96
2022-08-22T23:04:33.630Z,51.49
2022-08-22T23:07:01.462Z,51.77
2022-08-22T23:09:37.994Z,51.83
2022-08-22T23:12:15.223Z,52.48
2022-08-22T23:14:42.727Z,53.15
2022-08-22T23:17:10.792Z,52.93
2022-08-22T23:19:38.961Z,52.71
2022-08-22T23:22:09.223Z,53.06
2022-08-22T23:24:39.860Z,53.10
2022-08-22T23:27:10.510Z,53.43
2022-08-22T23:29:43.264Z,53.29
2022-08-22T23:32:13.891Z,53.31
2022-08-22T23:34:46.152Z,54.07
2022-08-22T23:37:22.067Z,53.99
2022-08-22T23:39:50.118Z,53.81
2022-08-22T23:42:18.186Z,53.70
2022-08-22T23:44:47.606Z,53.31
2022-08-22T23:47:15.914Z,52.29
2022-08-22T23:49:44.153Z,52.18
2022-08-22T23:52:14.199Z,51.69
2022-08-22T23:54:42.440Z,52.08
2022-08-22T23:57:15.889Z,52.40
2022-08-22T23:59:47.951Z,52.28
